KLKU

Louisa County / Freeman Field Airport

Louisa, Virginia, USA
METAR KLKU 141315Z AUTO 27003KT 10SM CLR 21/18 A3004 RMK AO2 T02120180
Observed Flight Rules
Aug-14 @ 13:15 UTC (29 minutes ago) Visual Flight Rules
Wind Visibility Clouds
270° at 3 knots 10 miles
  • Clear skies
Temperatures Readings
Current 21°C / 70°F
Dewpoint 18°C / 64°F
Humidity 83%
Altimeter 30.04" Hg
Pressure 1017 hPa
Elevation 150
METAR KLKU 141315Z AUTO 27003KT 10SM CLR 21/18 A3004 RMK AO2 T02120180
Observed Flight Rules
Aug-14 @ 13:15 UTC
(29 minutes ago)
VFR
Wind Visibility
270° at 3 knots 10 miles
Clouds
  • Clear skies
Temperature Dewpoint
21°C / 70°F 18°C / 64°F
Humidity Altimeter Pressure
83% 30.04" Hg 1017 hPa